KTDZ

Toledo Executive Airport

Toledo, Ohio, USA
METAR KTDZ 220653Z AUTO 36006G14KT 10SM CLR 15/09 A3021 RMK AO2 SLP228 T01500094
Observed Flight Rules
Sep-22 @ 06:53 UTC (29 minutes ago) Visual Flight Rules
Wind Visibility Clouds
360° at 6 knots
 Gusting to 14 knots
10 miles
Temperatures Readings
Current 15°C / 59°F
Dewpoint 9°C / 48°F
Humidity 68%
Altimeter 30.21" Hg
Pressure 1022.8 hPa
Elevation 189
METAR KTDZ 220653Z AUTO 36006G14KT 10SM CLR 15/09 A3021 RMK AO2 SLP228 T01500094
Observed Flight Rules
Sep-22 @ 06:53 UTC
(29 minutes ago)
VFR
Wind Visibility
360° at 6 knots
 Gusting to 14 knots
10 miles
Clouds
Temperature Dewpoint
15°C / 59°F 9°C / 48°F
Humidity Altimeter Pressure
68% 30.21" Hg 1022.8 hPa